Mar Maria — 9HA2859 — position and weather

sailwx.info

Track history (hours):
 
Tides and Currents Weather Stations Pressure Air Temp Water Temp Dewpoint Dewpoint Depression Visibility Wind Speed Wind Dir Waves Ship Positions

Mar Maria

Last reported at 2014-Aug-28 10:18 UTC. Time now 2014-Aug-28 11:25 UTC.
Position N 39°13' E 000°38'.

Length 103 m; draft 6.7 m.

Type: Tanker. MMSI: 256435000.

Date/timePositionNaut miles runAvg speedWind from/ knotsBaromVisibWave heightAir tempDewpointWater temp
2014-Aug-28 10:18N 39°13' E 000°38'3512.1
2014-Aug-28 07:25N 39°46' E 000°53'1012.0
2014-Aug-28 06:33N 39°55' E 000°58'1211.8
2014-Aug-28 05:33N 40°07' E 001°01'1212.0
2014-Aug-28 04:33N 40°19' E 001°03'1211.8
2014-Aug-28 03:33N 40°30' E 001°05'1211.6
2014-Aug-28 02:30N 40°42' E 001°08'23 1.3
2014-Aug-27 08:17N 41°05' E 001°12'0 0.0
2014-Aug-27 07:29N 41°05' E 001°12'0 0.0
2014-Aug-27 02:11N 41°05' E 001°12'0 0.0
2014-Aug-27 00:23N 41°05' E 001°12'0 0.0
2014-Aug-26 22:17N 41°05' E 001°12'0 0.0
2014-Aug-26 21:29N 41°05' E 001°12'0 0.0
2014-Aug-26 20:05N 41°05' E 001°12'0 0.0
2014-Aug-26 19:29N 41°05' E 001°12'0 0.0
2014-Aug-26 18:29N 41°05' E 001°12'2 1.7
2014-Aug-26 17:22N 41°05' E 001°15'0 0.0
2014-Aug-26 16:12N 41°05' E 001°15'5 6.0
2014-Aug-26 15:19N 41°03' E 001°21'911.3
2014-Aug-26 14:33N 41°03' E 001°32'1212.5
2014-Aug-26 13:34N 41°05' E 001°48'1211.7
2014-Aug-26 12:33N 41°07' E 002°04'1211.5
2014-Aug-26 11:32N 41°18' E 002°10'3 0.5
2014-Aug-26 06:33N 41°20' E 002°10'9 9.4
2014-Aug-26 05:33N 41°11' E 002°08'1110.9
2014-Aug-26 04:33N 41°02' E 002°02'1111.0
2014-Aug-26 03:33N 40°52' E 001°55'1111.2
2014-Aug-26 02:33N 40°42' E 001°48'1111.0
2014-Aug-26 01:33N 40°32' E 001°41'1111.0
2014-Aug-26 00:33N 40°23' E 001°34'1111.1
2014-Aug-25 23:33N 40°13' E 001°28'1111.0
2014-Aug-25 22:33N 40°03' E 001°21'1110.9
2014-Aug-25 21:33N 39°53' E 001°15'2210.9
2014-Aug-25 19:33N 39°34' E 001°02'1510.2
2014-Aug-25 18:08N 39°21' E 000°53'711.3
2014-Aug-25 17:33N 39°15' E 000°49'1211.8
2014-Aug-25 16:33N 39°04' E 000°42'1111.4
2014-Aug-25 15:33N 38°54' E 000°36'1211.6
2014-Aug-25 14:31N 38°44' E 000°29'1111.0
2014-Aug-25 13:33N 38°35' E 000°21'1110.5
2014-Aug-25 12:33N 38°26' E 000°14'1110.7
2014-Aug-25 11:32N 38°17' E 000°06'1110.9
2014-Aug-25 10:30N 38°07' W 000°01'1010.5
2014-Aug-25 09:33N 37°58' W 000°06'1410.4
2014-Aug-25 08:12N 37°47' W 000°18'710.4
2014-Aug-25 07:33N 37°42' W 000°23'1110.7
2014-Aug-25 06:30N 37°33' W 000°31'1010.3
2014-Aug-25 05:33N 37°28' W 000°42'1210.1
2014-Aug-25 04:23N 37°30' W 000°57'  
2014-Aug-19 18:16N 37°31' W 000°59'811.2
2014-Aug-19 17:33N 37°29' W 000°50'1010.2
2014-Aug-19 16:34N 37°31' W 000°38'1111.1
2014-Aug-19 15:33N 37°40' W 000°29'1111.1
2014-Aug-19 14:33N 37°50' W 000°21'1111.1
2014-Aug-19 13:32N 37°59' W 000°13'5811.3
2014-Aug-19 08:23N 38°48' E 000°26'1211.5
2014-Aug-19 07:23N 38°59' E 000°31'4611.8
2014-Aug-19 03:32N 39°42' E 000°51'1111.6
2014-Aug-19 02:33N 39°52' E 000°56'1211.4
2014-Aug-19 01:32N 40°03' E 001°01'4811.4
2014-Aug-18 21:18N 40°51' E 001°10'  
Track history (hours):
 
Tides and Currents Weather Stations Pressure Air Temp Water Temp Dewpoint Dewpoint Depression Visibility Wind Speed Wind Dir Waves Ship Positions

Mar Maria

Last reported at 2014-Aug-28 10:18 UTC. Time now 2014-Aug-28 11:25 UTC.
Position N 39°13' E 000°38'.

Length 103 m; draft 6.7 m.

Type: Tanker. MMSI: 256435000.

Date/timePositionNaut miles runAvg speedWind from/ knotsBaromVisibWave heightAir tempDewpointWater temp
2014-Aug-28 10:18N 39°13' E 000°38'3512.1
2014-Aug-28 07:25N 39°46' E 000°53'1012.0
2014-Aug-28 06:33N 39°55' E 000°58'1211.8
2014-Aug-28 05:33N 40°07' E 001°01'1212.0
2014-Aug-28 04:33N 40°19' E 001°03'1211.8
2014-Aug-28 03:33N 40°30' E 001°05'1211.6
2014-Aug-28 02:30N 40°42' E 001°08'23 1.3
2014-Aug-27 08:17N 41°05' E 001°12'0 0.0
2014-Aug-27 07:29N 41°05' E 001°12'0 0.0
2014-Aug-27 02:11N 41°05' E 001°12'0 0.0
2014-Aug-27 00:23N 41°05' E 001°12'0 0.0
2014-Aug-26 22:17N 41°05' E 001°12'0 0.0
2014-Aug-26 21:29N 41°05' E 001°12'0 0.0
2014-Aug-26 20:05N 41°05' E 001°12'0 0.0
2014-Aug-26 19:29N 41°05' E 001°12'0 0.0
2014-Aug-26 18:29N 41°05' E 001°12'2 1.7
2014-Aug-26 17:22N 41°05' E 001°15'0 0.0
2014-Aug-26 16:12N 41°05' E 001°15'5 6.0
2014-Aug-26 15:19N 41°03' E 001°21'911.3
2014-Aug-26 14:33N 41°03' E 001°32'1212.5
2014-Aug-26 13:34N 41°05' E 001°48'1211.7
2014-Aug-26 12:33N 41°07' E 002°04'1211.5
2014-Aug-26 11:32N 41°18' E 002°10'3 0.5
2014-Aug-26 06:33N 41°20' E 002°10'9 9.4
2014-Aug-26 05:33N 41°11' E 002°08'1110.9
2014-Aug-26 04:33N 41°02' E 002°02'1111.0
2014-Aug-26 03:33N 40°52' E 001°55'1111.2
2014-Aug-26 02:33N 40°42' E 001°48'1111.0
2014-Aug-26 01:33N 40°32' E 001°41'1111.0
2014-Aug-26 00:33N 40°23' E 001°34'1111.1
2014-Aug-25 23:33N 40°13' E 001°28'1111.0
2014-Aug-25 22:33N 40°03' E 001°21'1110.9
2014-Aug-25 21:33N 39°53' E 001°15'2210.9
2014-Aug-25 19:33N 39°34' E 001°02'1510.2
2014-Aug-25 18:08N 39°21' E 000°53'711.3
2014-Aug-25 17:33N 39°15' E 000°49'1211.8
2014-Aug-25 16:33N 39°04' E 000°42'1111.4
2014-Aug-25 15:33N 38°54' E 000°36'1211.6
2014-Aug-25 14:31N 38°44' E 000°29'1111.0
2014-Aug-25 13:33N 38°35' E 000°21'1110.5
2014-Aug-25 12:33N 38°26' E 000°14'1110.7
2014-Aug-25 11:32N 38°17' E 000°06'1110.9
2014-Aug-25 10:30N 38°07' W 000°01'1010.5
2014-Aug-25 09:33N 37°58' W 000°06'1410.4
2014-Aug-25 08:12N 37°47' W 000°18'710.4
2014-Aug-25 07:33N 37°42' W 000°23'1110.7
2014-Aug-25 06:30N 37°33' W 000°31'1010.3
2014-Aug-25 05:33N 37°28' W 000°42'1210.1
2014-Aug-25 04:23N 37°30' W 000°57'  
2014-Aug-19 18:16N 37°31' W 000°59'811.2
2014-Aug-19 17:33N 37°29' W 000°50'1010.2
2014-Aug-19 16:34N 37°31' W 000°38'1111.1
2014-Aug-19 15:33N 37°40' W 000°29'1111.1
2014-Aug-19 14:33N 37°50' W 000°21'1111.1
2014-Aug-19 13:32N 37°59' W 000°13'5811.3
2014-Aug-19 08:23N 38°48' E 000°26'1211.5
2014-Aug-19 07:23N 38°59' E 000°31'4611.8
2014-Aug-19 03:32N 39°42' E 000°51'1111.6
2014-Aug-19 02:33N 39°52' E 000°56'1211.4
2014-Aug-19 01:32N 40°03' E 001°01'4811.4
2014-Aug-18 21:18N 40°51' E 001°10'  

Dump ship's entire track history